Cincinnati, OH

5:55 PM EDT on August 27, 2016 (GMT -0400)
Newport Aquarium | | Change Station
Active Advisory: Special Statement Active Notice: Local Storm Report

Elev 499 ft 39.09 °N, 84.50 °W | Updated 1 minute ago

Mostly Cloudy
Mostly Cloudy
80.3 °F
Feels Like 84 °F
N
1.0
Wind Variable Wind from North
Gusts 7.0 mph

Today
High -- | Low -- °F
--% Chance of Precip.
Yesterday
High -- | Low -- °F
Precip. -- in
Pressure 30.11 in
Visibility 10.0 miles
Clouds Few 4600 ft
Mostly Cloudy 12000 ft
Heat Index 84 °F
Dew Point 71 °F
Humidity 73%
Rainfall 0.11 in
Snow Depth Not available.
7:02 AM 8:15 PM
Waning Crescent, 21% visible
METAR KLUK 272053Z VRB04KT 10SM FEW046 BKN120 24/22 A3011
Pressure 30.11 in
Visibility 10.0 miles
Clouds Few 4600 ft
Mostly Cloudy 12000 ft
Heat Index 84 °F
Dew Point 71 °F
Humidity 73%
Rainfall 0.11 in
Snow Depth Not available.
7:02 AM 8:15 PM
Waning Crescent, 21% visible
METAR KLUK 272053Z VRB04KT 10SM FEW046 BKN120 24/22 A3011

10-Day Weather Forecast

Almanac

Astronomy

Aug. 27, 2016 Rise Set
Actual Time
Civil Twilight
Nautical Twilight
Astronomical Twilight
Moon
Length of Visible Light
Length of Day
Tomorrow will be .
, % of the Moon is Illuminated

Today's Extremes

State Highs State Lows

Community

WunderPhotos

Upload Photos

1,935,455 photos uploaded!

WunderBlog® & News

Nearby

Air Quality

  Air Quality AQ Index Pollutant
Not available.

Snow Depth

Station Depth Elevation

Earthquake Activity

City Distance Mag. Time & Date
Minimum magnitude displayed is 2.5.

Coastal Water Temperatures

Place Temperature

Stations

Nearby Weather Stations

Station Location Temp. Windchill Dew Point Humidity Wind Precip. Elev Updated Type
                   

Watches & Warnings

Special Statement
Issued: 10:04 AM EDT Aug. 27, 2016 – National Weather Service

... Hot and humid conditions expected this afternoon...

High temperatures in the lower to middle 90s will combine with
high humidity to produce heat indices near 100 degrees this
afternoon into early evening... especially in urban areas.

If possible... spend more time in air conditioned or well
ventilated places this afternoon. If you will be outside... wear
light weight and loose fitting clothing and drink plenty of water.



1004 am EDT Sat Aug 27 2016

... Hot and humid conditions expected this afternoon...

High temperatures in the lower to middle 90s will combine with
high humidity to produce heat indices near 100 degrees this
afternoon into early evening... especially in urban areas.

If possible... spend more time in air conditioned or well
ventilated places this afternoon. If you will be outside... wear
light weight and loose fitting clothing and drink plenty of water.